• Join FlightAware (Why Join?)
  • Login
  • US Flag 
01:56AM EDT


 

Airport Tracker/Info


-or-


 

Live Flight TrackerFlight Track Log ✈ AAL1653 ✈ 19-May-2013 ✈ KRDU - KORD

Flight Track Log - Related Links

Times and Time Zones

All times are in EDT time to prevent confusion due to time zone crossing. See the AAL1653 flight status page for this flight to view local times or setup timezone preferences in your user account.

Time Position Orientation Groundspeed Altitude Reporting Facility
EDT Latitude Longitude Course Direction KTS MPH feet Rate Location/Type
02:47PM 35.8664 -78.8139 258° West 154 177 1,600  Level Washington Center
02:47PM 35.8494 -78.8286 215° Southwest 156 180 2,300 1,860 Climbing Washington Center
02:48PM 35.8183 -78.8964 241° Southwest 249 287 4,500 2,520 Climbing Washington Center
02:49PM 35.8408 -79.1794 265° West  Level FlightAware Approximate
02:50PM 35.8320 -79.3121 262° West  Level FlightAware Approximate
02:50PM 35.8314 -79.0275 277° West 276 318 8,900  Level Washington Center
02:51PM 35.8173 -79.4440 262° West  Level FlightAware Approximate
02:51PM 35.8619 -79.1186 293° West 273 314 11,600  Level Washington Center
02:52PM 35.7962 -79.5561 258° West  Level FlightAware Approximate
02:52PM 35.8903 -79.2200 289° West 293 337 13,800  Level Washington Center
02:54PM 35.9464 -79.4244 289° West 336 387 16,800 1,440 Climbing Atlanta Center
02:55PM 35.9322 -79.5458 262° West 351 404 17,900 900 Climbing Atlanta Center
02:56PM 35.9136 -79.6672 259° West 361 415 18,600 1,140 Climbing Atlanta Center
02:57PM 35.9469 -79.7808 290° West 372 428 20,200 1,620 Climbing Atlanta Center
02:58PM 35.9744 -79.9128 284° West 383 441 21,900 1,740 Climbing Atlanta Center
02:59PM 36.0039 -80.0475 285° West 399 459 23,700 1,620 Climbing Atlanta Center
03:00PM 36.0311 -80.1822 284° West 404 465 25,200 1,620 Climbing Atlanta Center
03:01PM 36.0650 -80.3372 285° West 417 480 27,000 1,560 Climbing Atlanta Center
03:02PM 36.0942 -80.4772 284° West 427 491 28,400 960 Climbing Atlanta Center
03:03PM 36.1275 -80.6222 286° West 427 491 29,000 300 Climbing Atlanta Center
03:04PM 36.1586 -80.7703 285° West 434 499 29,000  Level Atlanta Center
03:05PM 36.1978 -80.9100 289° West 429 494 29,000  Level Atlanta Center
03:06PM 36.2861 -81.0200 315° West 432 497 29,000  Level Atlanta Center
03:07PM 36.3961 -81.0856 334° Northwest 432 497 29,000  Level Atlanta Center
03:08PM 36.5061 -81.1589 332° Northwest 439 505 29,000 660 Level Atlanta Center
03:09PM 36.6181 -81.2169 337° Northwest 437 503 30,400 1,260 Climbing Atlanta Center
03:10PM 36.7319 -81.2750 338° Northwest 437 503 31,600 1,080 Climbing Atlanta Center
03:11PM 36.8075 -81.3839 311° West 420 483 32,600 900 Climbing Atlanta Center
03:12PM 36.8847 -81.4956 311° West 412 474 33,500 420 Climbing Atlanta Center
03:14PM 37.0703 -81.6906 320° Northwest 433 498 34,000 120 Climbing Indianapolis Center
03:15PM 37.1722 -81.7708 328° Northwest 432 497 34,000 -60 Level Indianapolis Center
03:16PM 37.2881 -81.8686 326° Northwest 431 496 33,900 -60 Descending Indianapolis Center
03:17PM 37.3942 -81.9433 331° Northwest 432 497 33,900  Level Indianapolis Center
03:18PM 37.5014 -82.0186 331° Northwest 439 505 34,000  Climbing Indianapolis Center
03:19PM 37.6031 -82.0994 328° Northwest 436 502 33,900  Descending Indianapolis Center
03:20PM 37.6908 -82.2050 316° Northwest 439 505 34,000  Climbing Indianapolis Center
03:21PM 37.7911 -82.3325 315° West 438 504 34,000  Level Indianapolis Center
03:22PM 37.8700 -82.4456 311° West 432 497 34,000 -60 Level Indianapolis Center
03:23PM 37.9533 -82.5564 314° West 433 498 33,900  Descending Indianapolis Center
03:24PM 38.0347 -82.6719 312° West 442 509 34,000  Climbing Indianapolis Center
03:25PM 38.1003 -82.7986 303° West 436 502 34,000  Level Indianapolis Center
03:26PM 38.1819 -82.9486 305° West 441 507 34,000 -60 Level Indianapolis Center
03:27PM 38.2528 -83.0733 306° West 435 501 33,900 -60 Descending Indianapolis Center
03:28PM 38.3492 -83.1678 322° Northwest 437 503 33,900  Level Indianapolis Center
03:29PM 38.4417 -83.2711 319° Northwest 441 507 33,900  Level Indianapolis Center
03:30PM 38.5339 -83.3744 319° Northwest 440 506 34,000  Climbing Indianapolis Center
03:31PM 38.6253 -83.4783 318° Northwest 439 505 34,000 -60 Level Indianapolis Center
03:33PM 38.7242 -83.5914 318° Northwest 437 503 33,900 -60 Descending Indianapolis Center
03:34PM 38.8164 -83.6950 319° Northwest 435 501 33,900  Level Indianapolis Center
03:35PM 38.9086 -83.8031 318° Northwest 443 510 33,900  Level Indianapolis Center
03:36PM 39.0000 -83.9072 318° Northwest 436 502 33,900  Level Indianapolis Center
03:37PM 39.1067 -84.0308 318° Northwest 435 501 33,900  Level Indianapolis Center
03:38PM 39.1986 -84.1364 318° Northwest 435 501 33,900  Level Indianapolis Center
03:39PM 39.2894 -84.2436 318° Northwest 436 502 33,900  Level Indianapolis Center
03:40PM 39.3806 -84.3503 318° Northwest 436 502 33,900 -540 Level Indianapolis Center
03:41PM 39.4719 -84.4569 318° Northwest 436 502 32,900 -1,200 Descending Indianapolis Center
03:42PM 39.5639 -84.5647 318° Northwest 439 505 31,500 -1,440 Descending Indianapolis Center
03:43PM 39.6561 -84.6742 318° Northwest 444 511 30,000 -1,440 Descending Indianapolis Center
03:44PM 39.7519 -84.7892 317° Northwest 458 527 28,600 -960 Descending Indianapolis Center
03:45PM 39.8658 -84.9233 318° Northwest 468 539 28,000 -360 Descending Indianapolis Center
03:46PM 39.9622 -85.0386 318° Northwest 471 542 27,900 -540 Descending Indianapolis Center
03:47PM 40.0575 -85.1517 318° Northwest 468 539 26,900 -960 Descending Indianapolis Center
03:48PM 40.1500 -85.2631 317° Northwest 459 528 26,000 -480 Descending Indianapolis Center
03:49PM 40.2417 -85.3750 317° Northwest 455 524 26,000  Level Indianapolis Center
03:49PM 40.2778 -85.4167 319° Northwest 451 519 26,000 -660 Level Chicago Center
03:50PM 40.3692 -85.5281 317° Northwest 451 519 25,100 -1,020 Descending Chicago Center
03:52PM 40.4767 -85.6606 317° Northwest 446 513 24,000 -960 Descending Chicago Center
03:53PM 40.5478 -85.7900 306° West 442 509 23,200 -900 Descending Chicago Center
03:54PM 40.6206 -85.9156 307° West 436 502 22,200 -600 Descending Chicago Center
03:55PM 40.7006 -86.0508 308° West 426 490 22,000 -120 Descending Chicago Center
03:56PM 40.7722 -86.1747 307° West 424 488 22,000  Level Chicago Center
03:57PM 40.8461 -86.3000 308° West 431 496 22,000  Level Chicago Center
03:58PM 40.9203 -86.4244 308° West 431 496 22,000  Level Chicago Center
03:59PM 40.9925 -86.5511 307° West 429 494 22,000 -240 Level Chicago Center
04:00PM 41.0647 -86.6758 308° West 426 490 21,600 -1,260 Descending Chicago Center
04:01PM 41.1542 -86.8281 308° West 426 490 19,500 -1,860 Descending Chicago Center
04:02PM 41.2250 -86.9469 308° West 415 478 17,800 -1,920 Descending Chicago Center
04:03PM 41.2886 -87.0644 306° West 399 459 15,600 -2,220 Descending Chicago Center
04:04PM 41.3539 -87.1767 308° West 391 450 13,300 -1,980 Descending Chicago Center
04:05PM 41.4294 -87.2733 316° Northwest 383 441 11,600 -1,200 Descending Chicago Center
04:06PM 41.5161 -87.3756 319° Northwest 359 413 10,900 -360 Descending Chicago Center
04:07PM 41.5881 -87.4550 320° Northwest 342 394 10,900  Level Chicago Center
04:08PM 41.6614 -87.5358 321° Northwest 345 397 10,900 -300 Level Chicago Center
04:09PM 41.7272 -87.6117 319° Northwest 317 365 10,300 -1,140 Descending Chicago Center
04:10PM 41.8000 -87.6833 324° Northwest 280 322 8,700 -1,620 Descending Chicago TRACON
04:11PM 41.8667 -87.7000 349° North 293 337 7,200 -900 Descending Chicago TRACON
04:12PM 41.9500 -87.7167 352° North 283 326 6,900 -480 Descending Chicago TRACON
04:13PM 42.0167 -87.7000 11° North 240 276 6,300 -1,020 Descending Chicago TRACON
04:14PM 42.0833 -87.6833 11° North 245 282 4,900 -1,740 Descending Chicago TRACON
04:15PM 42.1167 -87.7500 304° West 219 252 2,900 -2,040 Descending Chicago TRACON